sensor_id;sensor_type;location;lat;lon;timestamp;P1;durP1;ratioP1;P2;durP2;ratioP2
26588;SDS011;14235;48.532;8.722;2024-02-14T00:02:25;7.07;;;6.30;;
26588;SDS011;14235;48.532;8.722;2024-02-14T00:04:54;7.22;;;6.38;;
26588;SDS011;14235;48.532;8.722;2024-02-14T00:07:20;7.22;;;6.15;;
26588;SDS011;14235;48.532;8.722;2024-02-14T00:09:46;8.23;;;5.75;;
26588;SDS011;14235;48.532;8.722;2024-02-14T00:12:12;7.82;;;5.82;;
26588;SDS011;14235;48.532;8.722;2024-02-14T00:14:38;7.45;;;5.65;;
26588;SDS011;14235;48.532;8.722;2024-02-14T00:17:04;9.25;;;5.65;;
26588;SDS011;14235;48.532;8.722;2024-02-14T00:19:30;6.50;;;5.25;;
26588;SDS011;14235;48.532;8.722;2024-02-14T00:21:56;8.05;;;5.80;;
26588;SDS011;14235;48.532;8.722;2024-02-14T00:24:22;6.90;;;5.60;;
26588;SDS011;14235;48.532;8.722;2024-02-14T00:26:48;7.67;;;5.43;;
26588;SDS011;14235;48.532;8.722;2024-02-14T00:29:15;7.15;;;5.63;;
26588;SDS011;14235;48.532;8.722;2024-02-14T00:31:41;6.05;;;5.15;;
26588;SDS011;14235;48.532;8.722;2024-02-14T00:34:09;9.95;;;5.60;;
26588;SDS011;14235;48.532;8.722;2024-02-14T00:36:35;8.13;;;5.65;;
26588;SDS011;14235;48.532;8.722;2024-02-14T00:39:00;7.35;;;5.30;;
26588;SDS011;14235;48.532;8.722;2024-02-14T00:41:26;8.57;;;5.60;;
26588;SDS011;14235;48.532;8.722;2024-02-14T00:43:54;6.93;;;5.83;;
26588;SDS011;14235;48.532;8.722;2024-02-14T00:46:20;7.45;;;5.35;;
26588;SDS011;14235;48.532;8.722;2024-02-14T00:48:46;8.05;;;5.43;;
26588;SDS011;14235;48.532;8.722;2024-02-14T00:51:11;8.15;;;5.75;;
26588;SDS011;14235;48.532;8.722;2024-02-14T00:53:37;6.43;;;4.40;;
26588;SDS011;14235;48.532;8.722;2024-02-14T00:56:03;5.18;;;4.68;;
26588;SDS011;14235;48.532;8.722;2024-02-14T00:58:28;6.88;;;4.78;;
26588;SDS011;14235;48.532;8.722;2024-02-14T01:00:54;6.68;;;4.65;;
26588;SDS011;14235;48.532;8.722;2024-02-14T01:03:19;6.07;;;4.40;;
26588;SDS011;14235;48.532;8.722;2024-02-14T01:05:45;6.95;;;5.00;;
26588;SDS011;14235;48.532;8.722;2024-02-14T01:08:12;5.75;;;4.47;;
26588;SDS011;14235;48.532;8.722;2024-02-14T01:10:38;4.70;;;4.20;;
26588;SDS011;14235;48.532;8.722;2024-02-14T01:13:04;6.85;;;4.95;;
26588;SDS011;14235;48.532;8.722;2024-02-14T01:15:30;7.10;;;5.10;;
26588;SDS011;14235;48.532;8.722;2024-02-14T01:17:55;7.50;;;5.60;;
26588;SDS011;14235;48.532;8.722;2024-02-14T01:20:21;5.82;;;5.13;;
26588;SDS011;14235;48.532;8.722;2024-02-14T01:22:46;6.00;;;4.95;;
26588;SDS011;14235;48.532;8.722;2024-02-14T01:25:12;8.38;;;5.40;;
26588;SDS011;14235;48.532;8.722;2024-02-14T01:27:38;6.30;;;5.53;;
26588;SDS011;14235;48.532;8.722;2024-02-14T01:30:04;6.03;;;5.03;;
26588;SDS011;14235;48.532;8.722;2024-02-14T01:32:30;8.93;;;5.70;;
26588;SDS011;14235;48.532;8.722;2024-02-14T01:34:56;7.03;;;5.03;;
26588;SDS011;14235;48.532;8.722;2024-02-14T01:37:22;5.85;;;4.90;;
26588;SDS011;14235;48.532;8.722;2024-02-14T01:39:47;5.28;;;4.25;;
26588;SDS011;14235;48.532;8.722;2024-02-14T01:42:13;6.45;;;5.00;;
26588;SDS011;14235;48.532;8.722;2024-02-14T01:44:39;6.40;;;5.55;;
26588;SDS011;14235;48.532;8.722;2024-02-14T01:47:05;9.73;;;6.10;;
26588;SDS011;14235;48.532;8.722;2024-02-14T01:49:31;8.57;;;5.40;;
26588;SDS011;14235;48.532;8.722;2024-02-14T01:51:59;11.10;;;5.75;;
26588;SDS011;14235;48.532;8.722;2024-02-14T01:54:27;8.20;;;5.20;;
26588;SDS011;14235;48.532;8.722;2024-02-14T01:56:54;6.72;;;4.75;;
26588;SDS011;14235;48.532;8.722;2024-02-14T01:59:21;6.38;;;5.03;;
26588;SDS011;14235;48.532;8.722;2024-02-14T02:01:48;7.00;;;5.40;;
26588;SDS011;14235;48.532;8.722;2024-02-14T02:04:13;5.05;;;4.43;;
26588;SDS011;14235;48.532;8.722;2024-02-14T02:06:39;4.93;;;4.40;;
26588;SDS011;14235;48.532;8.722;2024-02-14T02:09:06;6.25;;;5.15;;
26588;SDS011;14235;48.532;8.722;2024-02-14T02:11:41;7.00;;;5.20;;
26588;SDS011;14235;48.532;8.722;2024-02-14T02:14:11;7.03;;;5.32;;
26588;SDS011;14235;48.532;8.722;2024-02-14T02:16:37;7.35;;;5.40;;
26588;SDS011;14235;48.532;8.722;2024-02-14T02:19:03;7.88;;;5.28;;
26588;SDS011;14235;48.532;8.722;2024-02-14T02:21:30;6.82;;;4.95;;
26588;SDS011;14235;48.532;8.722;2024-02-14T02:23:55;6.90;;;4.50;;
26588;SDS011;14235;48.532;8.722;2024-02-14T02:26:21;7.35;;;5.05;;
26588;SDS011;14235;48.532;8.722;2024-02-14T02:28:47;7.43;;;5.40;;
26588;SDS011;14235;48.532;8.722;2024-02-14T02:31:12;8.85;;;5.60;;
26588;SDS011;14235;48.532;8.722;2024-02-14T02:33:38;6.05;;;5.22;;
26588;SDS011;14235;48.532;8.722;2024-02-14T02:36:03;7.60;;;5.45;;
26588;SDS011;14235;48.532;8.722;2024-02-14T02:38:29;7.07;;;5.18;;
26588;SDS011;14235;48.532;8.722;2024-02-14T02:40:54;5.78;;;4.78;;
26588;SDS011;14235;48.532;8.722;2024-02-14T02:43:20;5.95;;;4.68;;
26588;SDS011;14235;48.532;8.722;2024-02-14T02:45:46;5.00;;;4.28;;
26588;SDS011;14235;48.532;8.722;2024-02-14T02:48:12;6.68;;;4.60;;
26588;SDS011;14235;48.532;8.722;2024-02-14T02:50:38;4.78;;;4.13;;
26588;SDS011;14235;48.532;8.722;2024-02-14T02:53:03;7.05;;;4.47;;
26588;SDS011;14235;48.532;8.722;2024-02-14T02:55:29;6.78;;;4.85;;
26588;SDS011;14235;48.532;8.722;2024-02-14T02:57:55;6.22;;;5.22;;
26588;SDS011;14235;48.532;8.722;2024-02-14T03:00:21;5.05;;;4.55;;
26588;SDS011;14235;48.532;8.722;2024-02-14T03:02:46;5.78;;;4.38;;
26588;SDS011;14235;48.532;8.722;2024-02-14T03:05:12;5.72;;;4.53;;
26588;SDS011;14235;48.532;8.722;2024-02-14T03:07:45;6.65;;;4.43;;
26588;SDS011;14235;48.532;8.722;2024-02-14T03:10:12;5.93;;;4.30;;
26588;SDS011;14235;48.532;8.722;2024-02-14T03:12:39;4.25;;;3.85;;
26588;SDS011;14235;48.532;8.722;2024-02-14T03:15:05;6.82;;;4.03;;
26588;SDS011;14235;48.532;8.722;2024-02-14T03:17:31;4.40;;;4.00;;
26588;SDS011;14235;48.532;8.722;2024-02-14T03:19:57;7.30;;;4.15;;
26588;SDS011;14235;48.532;8.722;2024-02-14T03:22:22;7.13;;;4.70;;
26588;SDS011;14235;48.532;8.722;2024-02-14T03:24:48;6.53;;;4.22;;
26588;SDS011;14235;48.532;8.722;2024-02-14T03:27:14;5.32;;;4.18;;
26588;SDS011;14235;48.532;8.722;2024-02-14T03:29:39;5.40;;;3.92;;
26588;SDS011;14235;48.532;8.722;2024-02-14T03:32:05;4.45;;;3.85;;
26588;SDS011;14235;48.532;8.722;2024-02-14T03:34:32;6.20;;;4.35;;
26588;SDS011;14235;48.532;8.722;2024-02-14T03:37:00;4.80;;;4.32;;
26588;SDS011;14235;48.532;8.722;2024-02-14T03:39:27;4.50;;;4.10;;
26588;SDS011;14235;48.532;8.722;2024-02-14T03:41:53;6.05;;;4.45;;
26588;SDS011;14235;48.532;8.722;2024-02-14T03:44:21;5.68;;;4.10;;
26588;SDS011;14235;48.532;8.722;2024-02-14T03:46:48;4.72;;;4.28;;
26588;SDS011;14235;48.532;8.722;2024-02-14T03:49:13;4.90;;;4.40;;
26588;SDS011;14235;48.532;8.722;2024-02-14T03:51:39;6.63;;;3.90;;
26588;SDS011;14235;48.532;8.722;2024-02-14T03:54:05;4.07;;;3.67;;
26588;SDS011;14235;48.532;8.722;2024-02-14T03:56:31;4.22;;;3.30;;
26588;SDS011;14235;48.532;8.722;2024-02-14T03:58:58;4.38;;;3.95;;
26588;SDS011;14235;48.532;8.722;2024-02-14T04:01:24;4.38;;;3.97;;
26588;SDS011;14235;48.532;8.722;2024-02-14T04:03:50;4.88;;;3.53;;
26588;SDS011;14235;48.532;8.722;2024-02-14T04:06:15;6.88;;;4.00;;
26588;SDS011;14235;48.532;8.722;2024-02-14T04:08:41;4.75;;;3.40;;
26588;SDS011;14235;48.532;8.722;2024-02-14T04:11:07;5.03;;;3.92;;
26588;SDS011;14235;48.532;8.722;2024-02-14T04:13:32;4.70;;;4.30;;
26588;SDS011;14235;48.532;8.722;2024-02-14T04:15:58;5.47;;;3.85;;
26588;SDS011;14235;48.532;8.722;2024-02-14T04:18:23;4.28;;;3.67;;
26588;SDS011;14235;48.532;8.722;2024-02-14T04:20:49;4.80;;;3.83;;
26588;SDS011;14235;48.532;8.722;2024-02-14T04:23:15;4.18;;;3.67;;
26588;SDS011;14235;48.532;8.722;2024-02-14T04:25:40;4.22;;;3.83;;
26588;SDS011;14235;48.532;8.722;2024-02-14T04:28:06;6.68;;;3.70;;
26588;SDS011;14235;48.532;8.722;2024-02-14T04:30:32;4.40;;;3.60;;
26588;SDS011;14235;48.532;8.722;2024-02-14T04:32:57;4.05;;;3.47;;
26588;SDS011;14235;48.532;8.722;2024-02-14T04:35:23;5.13;;;3.38;;
26588;SDS011;14235;48.532;8.722;2024-02-14T04:37:48;3.92;;;3.50;;
26588;SDS011;14235;48.532;8.722;2024-02-14T04:40:14;5.85;;;3.75;;
26588;SDS011;14235;48.532;8.722;2024-02-14T04:42:43;4.55;;;3.60;;
26588;SDS011;14235;48.532;8.722;2024-02-14T04:45:08;5.13;;;3.60;;
26588;SDS011;14235;48.532;8.722;2024-02-14T04:47:34;5.20;;;3.58;;
26588;SDS011;14235;48.532;8.722;2024-02-14T04:50:00;4.68;;;4.15;;
26588;SDS011;14235;48.532;8.722;2024-02-14T04:52:29;5.68;;;3.75;;
26588;SDS011;14235;48.532;8.722;2024-02-14T04:54:54;5.00;;;3.90;;
26588;SDS011;14235;48.532;8.722;2024-02-14T04:57:21;4.72;;;4.20;;
26588;SDS011;14235;48.532;8.722;2024-02-14T04:59:47;4.80;;;4.30;;
26588;SDS011;14235;48.532;8.722;2024-02-14T05:02:12;6.63;;;3.80;;
26588;SDS011;14235;48.532;8.722;2024-02-14T05:04:38;5.05;;;3.50;;
26588;SDS011;14235;48.532;8.722;2024-02-14T05:07:04;4.85;;;3.75;;
26588;SDS011;14235;48.532;8.722;2024-02-14T05:09:30;3.78;;;3.40;;
26588;SDS011;14235;48.532;8.722;2024-02-14T05:11:55;5.18;;;3.90;;
26588;SDS011;14235;48.532;8.722;2024-02-14T05:14:21;3.28;;;2.97;;
26588;SDS011;14235;48.532;8.722;2024-02-14T05:16:47;3.42;;;3.10;;
26588;SDS011;14235;48.532;8.722;2024-02-14T05:19:12;5.53;;;3.70;;
26588;SDS011;14235;48.532;8.722;2024-02-14T05:21:38;4.00;;;3.60;;
26588;SDS011;14235;48.532;8.722;2024-02-14T05:24:04;4.45;;;3.72;;
26588;SDS011;14235;48.532;8.722;2024-02-14T05:26:30;5.65;;;3.85;;
26588;SDS011;14235;48.532;8.722;2024-02-14T05:28:55;4.55;;;3.38;;
26588;SDS011;14235;48.532;8.722;2024-02-14T05:31:21;4.15;;;3.75;;
26588;SDS011;14235;48.532;8.722;2024-02-14T05:33:47;3.95;;;3.47;;
26588;SDS011;14235;48.532;8.722;2024-02-14T05:36:12;5.88;;;3.53;;
26588;SDS011;14235;48.532;8.722;2024-02-14T05:38:38;3.65;;;3.33;;
26588;SDS011;14235;48.532;8.722;2024-02-14T05:41:03;4.35;;;3.20;;
26588;SDS011;14235;48.532;8.722;2024-02-14T05:43:29;4.75;;;3.95;;
26588;SDS011;14235;48.532;8.722;2024-02-14T05:45:55;4.65;;;3.90;;
26588;SDS011;14235;48.532;8.722;2024-02-14T05:48:20;3.55;;;3.17;;
26588;SDS011;14235;48.532;8.722;2024-02-14T05:50:46;5.30;;;3.30;;
26588;SDS011;14235;48.532;8.722;2024-02-14T05:53:11;7.55;;;3.80;;
26588;SDS011;14235;48.532;8.722;2024-02-14T05:55:37;7.45;;;3.72;;
26588;SDS011;14235;48.532;8.722;2024-02-14T05:58:03;5.32;;;3.60;;
26588;SDS011;14235;48.532;8.722;2024-02-14T06:00:29;4.03;;;3.38;;
26588;SDS011;14235;48.532;8.722;2024-02-14T06:02:55;3.83;;;3.10;;
26588;SDS011;14235;48.532;8.722;2024-02-14T06:05:21;5.10;;;3.83;;
26588;SDS011;14235;48.532;8.722;2024-02-14T06:07:47;3.88;;;3.22;;
26588;SDS011;14235;48.532;8.722;2024-02-14T06:10:13;3.22;;;2.97;;
26588;SDS011;14235;48.532;8.722;2024-02-14T06:12:38;5.57;;;3.70;;
26588;SDS011;14235;48.532;8.722;2024-02-14T06:15:05;3.47;;;3.17;;
26588;SDS011;14235;48.532;8.722;2024-02-14T06:17:32;4.57;;;3.65;;
26588;SDS011;14235;48.532;8.722;2024-02-14T06:19:58;4.32;;;2.78;;
26588;SDS011;14235;48.532;8.722;2024-02-14T06:22:23;3.58;;;3.10;;
26588;SDS011;14235;48.532;8.722;2024-02-14T06:24:49;4.07;;;2.97;;
26588;SDS011;14235;48.532;8.722;2024-02-14T06:27:15;4.47;;;3.08;;
26588;SDS011;14235;48.532;8.722;2024-02-14T06:29:44;4.68;;;3.50;;
26588;SDS011;14235;48.532;8.722;2024-02-14T06:32:11;4.43;;;4.03;;
26588;SDS011;14235;48.532;8.722;2024-02-14T06:34:37;4.40;;;3.50;;
26588;SDS011;14235;48.532;8.722;2024-02-14T06:37:03;4.25;;;3.50;;
26588;SDS011;14235;48.532;8.722;2024-02-14T06:39:29;5.65;;;3.30;;
26588;SDS011;14235;48.532;8.722;2024-02-14T06:41:55;4.00;;;3.35;;
26588;SDS011;14235;48.532;8.722;2024-02-14T06:44:22;3.90;;;3.17;;
26588;SDS011;14235;48.532;8.722;2024-02-14T06:46:48;5.93;;;3.35;;
26588;SDS011;14235;48.532;8.722;2024-02-14T06:49:13;5.88;;;3.10;;
26588;SDS011;14235;48.532;8.722;2024-02-14T06:51:40;5.18;;;3.42;;
26588;SDS011;14235;48.532;8.722;2024-02-14T06:54:06;3.53;;;3.20;;
26588;SDS011;14235;48.532;8.722;2024-02-14T06:56:31;4.18;;;3.00;;
26588;SDS011;14235;48.532;8.722;2024-02-14T06:58:57;3.75;;;3.15;;
26588;SDS011;14235;48.532;8.722;2024-02-14T07:01:25;4.60;;;3.05;;
26588;SDS011;14235;48.532;8.722;2024-02-14T07:03:51;2.95;;;2.72;;
26588;SDS011;14235;48.532;8.722;2024-02-14T07:06:18;4.28;;;3.22;;
26588;SDS011;14235;48.532;8.722;2024-02-14T07:08:43;3.65;;;2.78;;
26588;SDS011;14235;48.532;8.722;2024-02-14T07:11:09;4.22;;;3.28;;
26588;SDS011;14235;48.532;8.722;2024-02-14T07:13:35;2.50;;;2.30;;
26588;SDS011;14235;48.532;8.722;2024-02-14T07:16:00;3.25;;;2.30;;
26588;SDS011;14235;48.532;8.722;2024-02-14T07:18:26;3.10;;;2.30;;
26588;SDS011;14235;48.532;8.722;2024-02-14T07:20:51;2.63;;;2.42;;
26588;SDS011;14235;48.532;8.722;2024-02-14T07:23:18;3.50;;;2.30;;
26588;SDS011;14235;48.532;8.722;2024-02-14T07:25:45;3.97;;;2.35;;
26588;SDS011;14235;48.532;8.722;2024-02-14T07:28:10;3.92;;;3.50;;
26588;SDS011;14235;48.532;8.722;2024-02-14T07:30:36;4.43;;;2.53;;
26588;SDS011;14235;48.532;8.722;2024-02-14T07:33:02;4.72;;;3.03;;
26588;SDS011;14235;48.532;8.722;2024-02-14T07:35:27;3.95;;;2.80;;
26588;SDS011;14235;48.532;8.722;2024-02-14T07:37:54;4.38;;;2.60;;
26588;SDS011;14235;48.532;8.722;2024-02-14T07:40:20;3.13;;;2.63;;
26588;SDS011;14235;48.532;8.722;2024-02-14T07:42:46;3.13;;;2.70;;
26588;SDS011;14235;48.532;8.722;2024-02-14T07:45:12;4.25;;;2.58;;
26588;SDS011;14235;48.532;8.722;2024-02-14T07:47:38;6.32;;;3.10;;
26588;SDS011;14235;48.532;8.722;2024-02-14T07:50:05;3.90;;;2.90;;
26588;SDS011;14235;48.532;8.722;2024-02-14T07:52:31;3.53;;;2.70;;
26588;SDS011;14235;48.532;8.722;2024-02-14T07:54:57;3.42;;;3.13;;
26588;SDS011;14235;48.532;8.722;2024-02-14T07:57:22;5.03;;;3.00;;
26588;SDS011;14235;48.532;8.722;2024-02-14T07:59:49;2.78;;;2.58;;
26588;SDS011;14235;48.532;8.722;2024-02-14T08:02:15;2.67;;;2.47;;
26588;SDS011;14235;48.532;8.722;2024-02-14T08:04:41;4.22;;;2.35;;
26588;SDS011;14235;48.532;8.722;2024-02-14T08:07:07;2.63;;;2.42;;
26588;SDS011;14235;48.532;8.722;2024-02-14T08:09:33;4.35;;;3.03;;
26588;SDS011;14235;48.532;8.722;2024-02-14T08:11:59;3.45;;;3.13;;
26588;SDS011;14235;48.532;8.722;2024-02-14T08:14:25;2.15;;;1.95;;
26588;SDS011;14235;48.532;8.722;2024-02-14T08:16:51;4.30;;;2.90;;
26588;SDS011;14235;48.532;8.722;2024-02-14T08:19:17;3.83;;;2.60;;
26588;SDS011;14235;48.532;8.722;2024-02-14T08:21:43;4.28;;;3.00;;
26588;SDS011;14235;48.532;8.722;2024-02-14T08:24:09;4.88;;;2.97;;
26588;SDS011;14235;48.532;8.722;2024-02-14T08:26:35;7.40;;;3.20;;
26588;SDS011;14235;48.532;8.722;2024-02-14T08:29:00;5.57;;;3.53;;
26588;SDS011;14235;48.532;8.722;2024-02-14T08:31:26;4.32;;;2.85;;
26588;SDS011;14235;48.532;8.722;2024-02-14T08:33:52;3.17;;;2.80;;
26588;SDS011;14235;48.532;8.722;2024-02-14T08:36:18;5.88;;;3.88;;
26588;SDS011;14235;48.532;8.722;2024-02-14T08:38:44;5.28;;;2.75;;
26588;SDS011;14235;48.532;8.722;2024-02-14T08:41:09;4.70;;;2.60;;
26588;SDS011;14235;48.532;8.722;2024-02-14T08:43:35;5.47;;;2.42;;
26588;SDS011;14235;48.532;8.722;2024-02-14T08:46:00;4.13;;;2.55;;
26588;SDS011;14235;48.532;8.722;2024-02-14T08:48:27;3.15;;;2.40;;
26588;SDS011;14235;48.532;8.722;2024-02-14T08:50:54;2.97;;;2.25;;
26588;SDS011;14235;48.532;8.722;2024-02-14T08:53:20;1.85;;;1.67;;
26588;SDS011;14235;48.532;8.722;2024-02-14T08:55:47;4.07;;;2.03;;
26588;SDS011;14235;48.532;8.722;2024-02-14T08:58:12;2.10;;;1.90;;
26588;SDS011;14235;48.532;8.722;2024-02-14T09:00:38;2.88;;;2.08;;
26588;SDS011;14235;48.532;8.722;2024-02-14T09:03:04;2.35;;;1.98;;
26588;SDS011;14235;48.532;8.722;2024-02-14T09:05:30;5.25;;;2.45;;
26588;SDS011;14235;48.532;8.722;2024-02-14T09:07:56;1.85;;;1.50;;
26588;SDS011;14235;48.532;8.722;2024-02-14T09:10:22;2.80;;;1.77;;
26588;SDS011;14235;48.532;8.722;2024-02-14T09:12:48;3.78;;;1.98;;
26588;SDS011;14235;48.532;8.722;2024-02-14T09:15:13;1.88;;;1.30;;
26588;SDS011;14235;48.532;8.722;2024-02-14T09:17:39;1.90;;;1.58;;
26588;SDS011;14235;48.532;8.722;2024-02-14T09:20:06;2.10;;;1.40;;
26588;SDS011;14235;48.532;8.722;2024-02-14T09:22:35;2.92;;;1.30;;
26588;SDS011;14235;48.532;8.722;2024-02-14T09:25:01;1.30;;;1.20;;
26588;SDS011;14235;48.532;8.722;2024-02-14T09:27:30;2.10;;;1.40;;
26588;SDS011;14235;48.532;8.722;2024-02-14T09:29:59;2.33;;;1.42;;
26588;SDS011;14235;48.532;8.722;2024-02-14T09:32:24;3.10;;;1.42;;
26588;SDS011;14235;48.532;8.722;2024-02-14T09:34:50;1.50;;;1.40;;
26588;SDS011;14235;48.532;8.722;2024-02-14T09:37:16;2.88;;;1.33;;
26588;SDS011;14235;48.532;8.722;2024-02-14T09:39:41;1.20;;;1.10;;
26588;SDS011;14235;48.532;8.722;2024-02-14T09:42:09;1.15;;;1.05;;
26588;SDS011;14235;48.532;8.722;2024-02-14T09:44:38;2.22;;;1.10;;
26588;SDS011;14235;48.532;8.722;2024-02-14T09:47:05;1.77;;;1.15;;
26588;SDS011;14235;48.532;8.722;2024-02-14T09:49:32;2.70;;;1.13;;
26588;SDS011;14235;48.532;8.722;2024-02-14T09:52:01;1.00;;;0.95;;
26588;SDS011;14235;48.532;8.722;2024-02-14T09:54:31;2.13;;;1.20;;
26588;SDS011;14235;48.532;8.722;2024-02-14T09:56:59;0.90;;;0.90;;
26588;SDS011;14235;48.532;8.722;2024-02-14T09:59:27;1.25;;;1.10;;
26588;SDS011;14235;48.532;8.722;2024-02-14T10:01:53;2.33;;;1.08;;
26588;SDS011;14235;48.532;8.722;2024-02-14T10:04:19;1.50;;;1.40;;
26588;SDS011;14235;48.532;8.722;2024-02-14T10:06:47;1.00;;;1.00;;
26588;SDS011;14235;48.532;8.722;2024-02-14T10:09:17;1.25;;;1.02;;
26588;SDS011;14235;48.532;8.722;2024-02-14T10:11:44;1.25;;;1.08;;
26588;SDS011;14235;48.532;8.722;2024-02-14T10:14:11;1.75;;;1.20;;
26588;SDS011;14235;48.532;8.722;2024-02-14T10:16:37;1.27;;;1.02;;
26588;SDS011;14235;48.532;8.722;2024-02-14T10:19:03;1.42;;;1.33;;
26588;SDS011;14235;48.532;8.722;2024-02-14T10:21:29;1.27;;;1.17;;
26588;SDS011;14235;48.532;8.722;2024-02-14T10:24:01;1.17;;;0.90;;
26588;SDS011;14235;48.532;8.722;2024-02-14T10:26:27;3.45;;;1.40;;
26588;SDS011;14235;48.532;8.722;2024-02-14T10:28:56;1.50;;;0.90;;
26588;SDS011;14235;48.532;8.722;2024-02-14T10:31:24;1.67;;;1.10;;
26588;SDS011;14235;48.532;8.722;2024-02-14T10:33:50;1.48;;;1.38;;
26588;SDS011;14235;48.532;8.722;2024-02-14T10:36:20;0.90;;;0.90;;
26588;SDS011;14235;48.532;8.722;2024-02-14T10:38:46;1.08;;;0.98;;
26588;SDS011;14235;48.532;8.722;2024-02-14T10:41:14;1.15;;;1.05;;
26588;SDS011;14235;48.532;8.722;2024-02-14T10:43:42;1.00;;;1.00;;
26588;SDS011;14235;48.532;8.722;2024-02-14T10:46:12;1.45;;;1.10;;
26588;SDS011;14235;48.532;8.722;2024-02-14T10:48:52;0.80;;;0.80;;
26588;SDS011;14235;48.532;8.722;2024-02-14T10:51:21;0.82;;;0.82;;
26588;SDS011;14235;48.532;8.722;2024-02-14T10:53:51;0.80;;;0.80;;
26588;SDS011;14235;48.532;8.722;2024-02-14T10:56:18;0.88;;;0.88;;
26588;SDS011;14235;48.532;8.722;2024-02-14T10:58:47;2.95;;;1.17;;
26588;SDS011;14235;48.532;8.722;2024-02-14T11:01:14;1.58;;;0.80;;
26588;SDS011;14235;48.532;8.722;2024-02-14T11:03:41;1.52;;;0.80;;
26588;SDS011;14235;48.532;8.722;2024-02-14T11:06:09;1.45;;;1.02;;
26588;SDS011;14235;48.532;8.722;2024-02-14T11:08:41;0.80;;;0.77;;
26588;SDS011;14235;48.532;8.722;2024-02-14T11:11:06;2.53;;;1.10;;
26588;SDS011;14235;48.532;8.722;2024-02-14T11:13:32;1.40;;;1.15;;
26588;SDS011;14235;48.532;8.722;2024-02-14T11:16:00;1.05;;;1.00;;
26588;SDS011;14235;48.532;8.722;2024-02-14T11:18:27;1.00;;;0.85;;
26588;SDS011;14235;48.532;8.722;2024-02-14T11:20:57;0.82;;;0.82;;
26588;SDS011;14235;48.532;8.722;2024-02-14T11:23:23;1.00;;;0.77;;
26588;SDS011;14235;48.532;8.722;2024-02-14T11:25:49;0.73;;;0.73;;
26588;SDS011;14235;48.532;8.722;2024-02-14T11:28:16;1.35;;;0.70;;
26588;SDS011;14235;48.532;8.722;2024-02-14T11:30:44;0.82;;;0.82;;
26588;SDS011;14235;48.532;8.722;2024-02-14T11:33:14;1.20;;;0.82;;
26588;SDS011;14235;48.532;8.722;2024-02-14T11:35:48;0.70;;;0.60;;
26588;SDS011;14235;48.532;8.722;2024-02-14T11:38:24;2.30;;;1.10;;
26588;SDS011;14235;48.532;8.722;2024-02-14T11:40:54;0.68;;;0.65;;
26588;SDS011;14235;48.532;8.722;2024-02-14T11:43:23;0.90;;;0.90;;
26588;SDS011;14235;48.532;8.722;2024-02-14T11:45:49;1.50;;;0.85;;
26588;SDS011;14235;48.532;8.722;2024-02-14T11:48:17;1.00;;;1.00;;
26588;SDS011;14235;48.532;8.722;2024-02-14T11:50:45;0.55;;;0.55;;
26588;SDS011;14235;48.532;8.722;2024-02-14T11:53:11;0.75;;;0.75;;
26588;SDS011;14235;48.532;8.722;2024-02-14T11:55:38;2.10;;;0.90;;
26588;SDS011;14235;48.532;8.722;2024-02-14T11:58:15;1.20;;;0.80;;
26588;SDS011;14235;48.532;8.722;2024-02-14T12:00:42;1.05;;;0.98;;
26588;SDS011;14235;48.532;8.722;2024-02-14T12:03:12;1.05;;;0.80;;
26588;SDS011;14235;48.532;8.722;2024-02-14T12:05:41;0.65;;;0.60;;
26588;SDS011;14235;48.532;8.722;2024-02-14T12:08:09;1.05;;;0.95;;
26588;SDS011;14235;48.532;8.722;2024-02-14T12:10:35;0.63;;;0.63;;
26588;SDS011;14235;48.532;8.722;2024-02-14T12:13:08;0.93;;;0.82;;
26588;SDS011;14235;48.532;8.722;2024-02-14T12:15:38;1.33;;;0.63;;
26588;SDS011;14235;48.532;8.722;2024-02-14T12:18:04;1.08;;;0.73;;
26588;SDS011;14235;48.532;8.722;2024-02-14T12:20:31;0.70;;;0.70;;
26588;SDS011;14235;48.532;8.722;2024-02-14T12:22:58;1.02;;;0.82;;
26588;SDS011;14235;48.532;8.722;2024-02-14T12:25:24;0.90;;;0.70;;
26588;SDS011;14235;48.532;8.722;2024-02-14T12:27:51;0.52;;;0.52;;
26588;SDS011;14235;48.532;8.722;2024-02-14T12:30:18;0.85;;;0.77;;
26588;SDS011;14235;48.532;8.722;2024-02-14T12:32:57;0.63;;;0.63;;
26588;SDS011;14235;48.532;8.722;2024-02-14T12:35:24;1.40;;;0.60;;
26588;SDS011;14235;48.532;8.722;2024-02-14T12:37:50;0.73;;;0.73;;
26588;SDS011;14235;48.532;8.722;2024-02-14T12:40:15;0.70;;;0.70;;
26588;SDS011;14235;48.532;8.722;2024-02-14T12:42:41;1.98;;;0.82;;
26588;SDS011;14235;48.532;8.722;2024-02-14T12:45:07;0.70;;;0.70;;
26588;SDS011;14235;48.532;8.722;2024-02-14T12:47:34;1.25;;;0.73;;
26588;SDS011;14235;48.532;8.722;2024-02-14T12:50:00;0.52;;;0.52;;
26588;SDS011;14235;48.532;8.722;2024-02-14T12:52:25;3.13;;;0.70;;
26588;SDS011;14235;48.532;8.722;2024-02-14T12:54:51;0.70;;;0.70;;
26588;SDS011;14235;48.532;8.722;2024-02-14T12:57:23;0.32;;;0.32;;
26588;SDS011;14235;48.532;8.722;2024-02-14T12:59:49;0.73;;;0.73;;
26588;SDS011;14235;48.532;8.722;2024-02-14T13:02:15;0.75;;;0.52;;
26588;SDS011;14235;48.532;8.722;2024-02-14T13:04:41;0.40;;;0.40;;
26588;SDS011;14235;48.532;8.722;2024-02-14T13:07:07;0.43;;;0.43;;
26588;SDS011;14235;48.532;8.722;2024-02-14T13:09:36;0.50;;;0.50;;
26588;SDS011;14235;48.532;8.722;2024-02-14T13:12:03;0.40;;;0.40;;
26588;SDS011;14235;48.532;8.722;2024-02-14T13:14:31;0.55;;;0.55;;
26588;SDS011;14235;48.532;8.722;2024-02-14T13:16:58;0.95;;;0.65;;
26588;SDS011;14235;48.532;8.722;2024-02-14T13:19:23;0.85;;;0.70;;
26588;SDS011;14235;48.532;8.722;2024-02-14T13:21:49;0.50;;;0.50;;
26588;SDS011;14235;48.532;8.722;2024-02-14T13:24:14;1.27;;;0.60;;
26588;SDS011;14235;48.532;8.722;2024-02-14T13:26:40;0.65;;;0.65;;
26588;SDS011;14235;48.532;8.722;2024-02-14T13:29:05;0.98;;;0.80;;
26588;SDS011;14235;48.532;8.722;2024-02-14T13:31:32;0.73;;;0.73;;
26588;SDS011;14235;48.532;8.722;2024-02-14T13:33:57;1.92;;;0.70;;
26588;SDS011;14235;48.532;8.722;2024-02-14T13:36:23;0.80;;;0.75;;
26588;SDS011;14235;48.532;8.722;2024-02-14T13:38:49;1.33;;;0.73;;
26588;SDS011;14235;48.532;8.722;2024-02-14T13:41:14;2.15;;;0.63;;
26588;SDS011;14235;48.532;8.722;2024-02-14T13:43:40;0.60;;;0.60;;
26588;SDS011;14235;48.532;8.722;2024-02-14T13:46:07;0.77;;;0.77;;
26588;SDS011;14235;48.532;8.722;2024-02-14T13:48:34;0.63;;;0.63;;
26588;SDS011;14235;48.532;8.722;2024-02-14T13:51:00;0.85;;;0.50;;
26588;SDS011;14235;48.532;8.722;2024-02-14T13:53:27;0.63;;;0.63;;
26588;SDS011;14235;48.532;8.722;2024-02-14T13:55:52;0.60;;;0.60;;
26588;SDS011;14235;48.532;8.722;2024-02-14T13:58:18;0.57;;;0.50;;
26588;SDS011;14235;48.532;8.722;2024-02-14T14:00:44;0.70;;;0.70;;
26588;SDS011;14235;48.532;8.722;2024-02-14T14:03:10;1.10;;;0.47;;
26588;SDS011;14235;48.532;8.722;2024-02-14T14:05:36;0.73;;;0.73;;
26588;SDS011;14235;48.532;8.722;2024-02-14T14:08:02;0.95;;;0.47;;
26588;SDS011;14235;48.532;8.722;2024-02-14T14:10:28;0.60;;;0.60;;
26588;SDS011;14235;48.532;8.722;2024-02-14T14:12:54;0.82;;;0.82;;
26588;SDS011;14235;48.532;8.722;2024-02-14T14:15:20;0.60;;;0.50;;
26588;SDS011;14235;48.532;8.722;2024-02-14T14:17:47;0.70;;;0.70;;
26588;SDS011;14235;48.532;8.722;2024-02-14T14:20:13;0.90;;;0.60;;
26588;SDS011;14235;48.532;8.722;2024-02-14T14:22:39;0.77;;;0.60;;
26588;SDS011;14235;48.532;8.722;2024-02-14T14:25:05;0.45;;;0.45;;
26588;SDS011;14235;48.532;8.722;2024-02-14T14:27:33;2.30;;;0.98;;
26588;SDS011;14235;48.532;8.722;2024-02-14T14:29:59;0.52;;;0.52;;
26588;SDS011;14235;48.532;8.722;2024-02-14T14:32:24;0.70;;;0.52;;
26588;SDS011;14235;48.532;8.722;2024-02-14T14:34:50;1.00;;;0.93;;
26588;SDS011;14235;48.532;8.722;2024-02-14T14:37:15;0.70;;;0.70;;
26588;SDS011;14235;48.532;8.722;2024-02-14T14:39:41;1.00;;;0.88;;
26588;SDS011;14235;48.532;8.722;2024-02-14T14:42:08;1.02;;;0.82;;
26588;SDS011;14235;48.532;8.722;2024-02-14T14:44:34;0.47;;;0.47;;